LFHP/LPY METAR and TAF weather

Enter ICAO airport designator
Station Type Date Time Source
LFHP METAR 2024/01/03 11:00 UTC NOAA

LFHP 031100Z AUTO 27011G22KT 240V320 CAVOK 10/02 Q1011


Station Type Date Time Source
LFHP Decoded METAR 2024/01/03 11:00 UTC NOAA

Le Puy, France (LFHP) 45-05N 003-46E 833M
Jan 03, 2024 - 06:00 AM EST / 2024.01.03 1100 UTC
Wind: from the W (270 degrees) at 13 MPH (11 KT) gusting to 25 MPH (22 KT) (direction variable):0
Visibility: greater than 7 mile(s):0
Temperature: 50 F (10 C)
Dew Point: 35 F (2 C)
Relative Humidity: 57%
Pressure (altimeter): 29.85 in. Hg (1011 hPa)
ob: LFHP 031100Z AUTO 27011G22KT 240V320 CAVOK 10/02 Q1011
cycle: 11

Station Type Date Time Source
LFHP TAF UTC NOAA

Error!

Example: see airport list